sensor_id;sensor_type;location;lat;lon;timestamp;pressure;altitude;pressure_sealevel;temperature;humidity
10978;BME280;5542;48.272;10.794;2023-07-24T00:01:29;95155.13;;;20.12;60.45
10978;BME280;5542;48.272;10.794;2023-07-24T00:03:57;95150.56;;;20.12;60.33
10978;BME280;5542;48.272;10.794;2023-07-24T00:06:24;95148.53;;;20.09;60.51
10978;BME280;5542;48.272;10.794;2023-07-24T00:08:50;95149.13;;;20.06;60.73
10978;BME280;5542;48.272;10.794;2023-07-24T00:11:17;95142.78;;;20.02;60.79
10978;BME280;5542;48.272;10.794;2023-07-24T00:13:44;95140.75;;;19.99;60.63
10978;BME280;5542;48.272;10.794;2023-07-24T00:16:11;95134.72;;;19.93;60.57
10978;BME280;5542;48.272;10.794;2023-07-24T00:18:37;95133.75;;;19.89;60.84
10978;BME280;5542;48.272;10.794;2023-07-24T00:21:05;95127.13;;;19.87;61.10
10978;BME280;5542;48.272;10.794;2023-07-24T00:23:32;95122.91;;;19.86;61.26
10978;BME280;5542;48.272;10.794;2023-07-24T00:25:58;95127.25;;;19.82;61.55
10978;BME280;5542;48.272;10.794;2023-07-24T00:28:25;95121.44;;;19.80;61.67
10978;BME280;5542;48.272;10.794;2023-07-24T00:30:51;95115.28;;;19.79;61.56
10978;BME280;5542;48.272;10.794;2023-07-24T00:33:18;95117.00;;;19.75;61.61
10978;BME280;5542;48.272;10.794;2023-07-24T00:35:45;95113.84;;;19.73;61.70
10978;BME280;5542;48.272;10.794;2023-07-24T00:38:12;95114.13;;;19.72;61.72
10978;BME280;5542;48.272;10.794;2023-07-24T00:40:39;95113.47;;;19.66;61.83
10978;BME280;5542;48.272;10.794;2023-07-24T00:43:06;95100.91;;;19.66;61.82
10978;BME280;5542;48.272;10.794;2023-07-24T00:45:32;95106.25;;;19.66;61.83
10978;BME280;5542;48.272;10.794;2023-07-24T00:47:59;95108.91;;;19.66;62.04
10978;BME280;5542;48.272;10.794;2023-07-24T00:50:27;95114.25;;;19.66;62.23
10978;BME280;5542;48.272;10.794;2023-07-24T00:52:55;95101.03;;;19.61;62.18
10978;BME280;5542;48.272;10.794;2023-07-24T00:55:23;95104.69;;;19.52;62.06
10978;BME280;5542;48.272;10.794;2023-07-24T00:57:49;95097.47;;;19.52;62.68
10978;BME280;5542;48.272;10.794;2023-07-24T01:00:16;95096.19;;;19.36;63.28
10978;BME280;5542;48.272;10.794;2023-07-24T01:02:43;95100.84;;;19.30;63.36
10978;BME280;5542;48.272;10.794;2023-07-24T01:05:10;95103.50;;;19.30;63.63
10978;BME280;5542;48.272;10.794;2023-07-24T01:07:39;95102.94;;;19.33;63.54
10978;BME280;5542;48.272;10.794;2023-07-24T01:10:06;95115.63;;;19.36;63.35
10978;BME280;5542;48.272;10.794;2023-07-24T01:12:36;95134.31;;;19.36;63.44
10978;BME280;5542;48.272;10.794;2023-07-24T01:15:10;95129.16;;;19.40;63.20
10978;BME280;5542;48.272;10.794;2023-07-24T01:17:45;95122.75;;;19.41;63.47
10978;BME280;5542;48.272;10.794;2023-07-24T01:20:15;95148.03;;;19.43;63.52
10978;BME280;5542;48.272;10.794;2023-07-24T01:22:51;95129.47;;;19.38;63.67
10978;BME280;5542;48.272;10.794;2023-07-24T01:25:28;95119.41;;;19.22;64.35
10978;BME280;5542;48.272;10.794;2023-07-24T01:27:58;95114.78;;;19.13;64.72
10978;BME280;5542;48.272;10.794;2023-07-24T01:30:25;95100.38;;;19.14;64.78
10978;BME280;5542;48.272;10.794;2023-07-24T01:32:52;95076.19;;;19.11;64.91
10978;BME280;5542;48.272;10.794;2023-07-24T01:35:18;95121.00;;;18.95;66.39
10978;BME280;5542;48.272;10.794;2023-07-24T01:37:46;95131.66;;;18.95;66.54
10978;BME280;5542;48.272;10.794;2023-07-24T01:40:13;95173.00;;;18.92;66.60
10978;BME280;5542;48.272;10.794;2023-07-24T01:42:41;95219.31;;;19.10;67.11
10978;BME280;5542;48.272;10.794;2023-07-24T01:45:09;95231.47;;;19.16;68.02
10978;BME280;5542;48.272;10.794;2023-07-24T01:47:38;95227.22;;;19.15;69.10
10978;BME280;5542;48.272;10.794;2023-07-24T01:50:05;95208.06;;;19.27;70.20
10978;BME280;5542;48.272;10.794;2023-07-24T01:52:32;95186.56;;;19.24;70.92
10978;BME280;5542;48.272;10.794;2023-07-24T01:54:59;95157.34;;;19.18;72.66
10978;BME280;5542;48.272;10.794;2023-07-24T01:57:25;95096.03;;;18.91;75.81
10978;BME280;5542;48.272;10.794;2023-07-24T01:59:52;95064.88;;;18.45;78.87
10978;BME280;5542;48.272;10.794;2023-07-24T02:02:20;95043.38;;;18.41;79.76
10978;BME280;5542;48.272;10.794;2023-07-24T02:04:46;95020.09;;;18.20;81.25
10978;BME280;5542;48.272;10.794;2023-07-24T02:07:13;95037.84;;;18.24;82.01
10978;BME280;5542;48.272;10.794;2023-07-24T02:09:39;95047.63;;;18.42;82.34
10978;BME280;5542;48.272;10.794;2023-07-24T02:12:06;95052.25;;;18.51;82.89
10978;BME280;5542;48.272;10.794;2023-07-24T02:14:33;95057.88;;;18.49;83.25
10978;BME280;5542;48.272;10.794;2023-07-24T02:16:59;95066.66;;;18.50;83.31
10978;BME280;5542;48.272;10.794;2023-07-24T02:19:27;95087.69;;;18.65;82.91
10978;BME280;5542;48.272;10.794;2023-07-24T02:21:54;95081.41;;;18.75;82.66
10978;BME280;5542;48.272;10.794;2023-07-24T02:24:21;95066.13;;;18.80;82.58
10978;BME280;5542;48.272;10.794;2023-07-24T02:26:47;95145.19;;;18.85;82.33
10978;BME280;5542;48.272;10.794;2023-07-24T02:29:14;95225.41;;;18.97;82.50
10978;BME280;5542;48.272;10.794;2023-07-24T02:31:40;95305.69;;;19.09;80.22
10978;BME280;5542;48.272;10.794;2023-07-24T02:34:07;95314.56;;;19.05;77.54
10978;BME280;5542;48.272;10.794;2023-07-24T02:36:35;95315.66;;;19.04;78.15
10978;BME280;5542;48.272;10.794;2023-07-24T02:39:03;95340.50;;;18.99;79.52
10978;BME280;5542;48.272;10.794;2023-07-24T02:41:29;95331.59;;;18.90;79.73
10978;BME280;5542;48.272;10.794;2023-07-24T02:43:56;95356.63;;;18.89;81.02
10978;BME280;5542;48.272;10.794;2023-07-24T02:46:23;95337.97;;;18.89;82.22
10978;BME280;5542;48.272;10.794;2023-07-24T02:48:50;95329.19;;;18.88;83.00
10978;BME280;5542;48.272;10.794;2023-07-24T02:51:16;95289.31;;;18.83;83.82
10978;BME280;5542;48.272;10.794;2023-07-24T02:53:44;95251.53;;;18.81;83.23
10978;BME280;5542;48.272;10.794;2023-07-24T02:56:11;95209.78;;;18.77;84.03
10978;BME280;5542;48.272;10.794;2023-07-24T02:58:37;95178.19;;;18.70;84.87
10978;BME280;5542;48.272;10.794;2023-07-24T03:01:04;95127.44;;;18.61;86.42
10978;BME280;5542;48.272;10.794;2023-07-24T03:03:32;95119.31;;;18.39;89.36
10978;BME280;5542;48.272;10.794;2023-07-24T03:05:59;95125.13;;;18.41;89.92
10978;BME280;5542;48.272;10.794;2023-07-24T03:08:25;95110.47;;;18.57;89.18
10978;BME280;5542;48.272;10.794;2023-07-24T03:10:53;95101.97;;;18.55;88.88
10978;BME280;5542;48.272;10.794;2023-07-24T03:13:20;95107.50;;;18.59;88.88
10978;BME280;5542;48.272;10.794;2023-07-24T03:15:52;95097.34;;;18.61;88.93
10978;BME280;5542;48.272;10.794;2023-07-24T03:18:19;95106.31;;;18.65;88.95
10978;BME280;5542;48.272;10.794;2023-07-24T03:20:45;95122.75;;;18.72;88.51
10978;BME280;5542;48.272;10.794;2023-07-24T03:23:12;95118.03;;;18.83;87.51
10978;BME280;5542;48.272;10.794;2023-07-24T03:25:39;95109.94;;;18.88;86.91
10978;BME280;5542;48.272;10.794;2023-07-24T03:28:06;95092.28;;;18.92;86.88
10978;BME280;5542;48.272;10.794;2023-07-24T03:30:33;95080.16;;;19.00;86.47
10978;BME280;5542;48.272;10.794;2023-07-24T03:33:01;95069.19;;;19.01;87.12
10978;BME280;5542;48.272;10.794;2023-07-24T03:35:27;95070.75;;;19.02;87.24
10978;BME280;5542;48.272;10.794;2023-07-24T03:37:54;95063.53;;;19.03;87.04
10978;BME280;5542;48.272;10.794;2023-07-24T03:40:21;95043.84;;;19.04;86.61
10978;BME280;5542;48.272;10.794;2023-07-24T03:42:47;95041.75;;;19.01;86.68
10978;BME280;5542;48.272;10.794;2023-07-24T03:45:15;95035.63;;;19.00;86.52
10978;BME280;5542;48.272;10.794;2023-07-24T03:47:42;95041.44;;;19.02;86.49
10978;BME280;5542;48.272;10.794;2023-07-24T03:50:09;95038.78;;;19.02;86.21
10978;BME280;5542;48.272;10.794;2023-07-24T03:52:35;95045.19;;;19.01;86.04
10978;BME280;5542;48.272;10.794;2023-07-24T03:55:03;95046.50;;;19.04;85.58
10978;BME280;5542;48.272;10.794;2023-07-24T03:57:29;95050.72;;;19.05;85.26
10978;BME280;5542;48.272;10.794;2023-07-24T03:59:56;95057.06;;;19.09;84.79
10978;BME280;5542;48.272;10.794;2023-07-24T04:02:24;95058.72;;;19.05;84.73
10978;BME280;5542;48.272;10.794;2023-07-24T04:04:50;95067.50;;;19.05;84.76
10978;BME280;5542;48.272;10.794;2023-07-24T04:07:17;95069.19;;;19.01;84.79
10978;BME280;5542;48.272;10.794;2023-07-24T04:09:43;95075.09;;;18.98;84.79
10978;BME280;5542;48.272;10.794;2023-07-24T04:12:10;95078.38;;;18.95;85.17
10978;BME280;5542;48.272;10.794;2023-07-24T04:14:36;95085.59;;;18.95;85.43
10978;BME280;5542;48.272;10.794;2023-07-24T04:17:03;95094.06;;;18.97;85.62
10978;BME280;5542;48.272;10.794;2023-07-24T04:19:31;95121.38;;;19.02;85.18
10978;BME280;5542;48.272;10.794;2023-07-24T04:21:58;95104.81;;;19.05;85.07
10978;BME280;5542;48.272;10.794;2023-07-24T04:24:25;95070.38;;;18.95;85.25
10978;BME280;5542;48.272;10.794;2023-07-24T04:26:51;95047.97;;;18.68;87.10
10978;BME280;5542;48.272;10.794;2023-07-24T04:29:18;95055.38;;;18.72;87.50
10978;BME280;5542;48.272;10.794;2023-07-24T04:31:48;95024.66;;;18.60;88.44
10978;BME280;5542;48.272;10.794;2023-07-24T04:34:15;95027.81;;;18.62;88.69
10978;BME280;5542;48.272;10.794;2023-07-24T04:36:43;95023.69;;;18.70;88.56
10978;BME280;5542;48.272;10.794;2023-07-24T04:39:10;95032.00;;;18.82;87.65
10978;BME280;5542;48.272;10.794;2023-07-24T04:41:36;95030.69;;;18.80;86.92
10978;BME280;5542;48.272;10.794;2023-07-24T04:44:03;95034.56;;;18.74;87.29
10978;BME280;5542;48.272;10.794;2023-07-24T04:46:30;95032.78;;;18.69;87.58
10978;BME280;5542;48.272;10.794;2023-07-24T04:48:56;95036.50;;;18.54;88.46
10978;BME280;5542;48.272;10.794;2023-07-24T04:51:23;95027.63;;;18.59;88.55
10978;BME280;5542;48.272;10.794;2023-07-24T04:53:51;95045.16;;;18.60;88.85
10978;BME280;5542;48.272;10.794;2023-07-24T04:56:18;95041.03;;;18.54;89.06
10978;BME280;5542;48.272;10.794;2023-07-24T04:58:44;95044.47;;;18.54;89.14
10978;BME280;5542;48.272;10.794;2023-07-24T05:01:11;95041.22;;;18.43;90.61
10978;BME280;5542;48.272;10.794;2023-07-24T05:03:37;95040.34;;;18.48;90.12
10978;BME280;5542;48.272;10.794;2023-07-24T05:06:04;95040.53;;;18.52;90.12
10978;BME280;5542;48.272;10.794;2023-07-24T05:08:30;95039.16;;;18.54;90.45
10978;BME280;5542;48.272;10.794;2023-07-24T05:10:59;95047.56;;;18.61;89.24
10978;BME280;5542;48.272;10.794;2023-07-24T05:13:26;95041.13;;;18.62;89.59
10978;BME280;5542;48.272;10.794;2023-07-24T05:15:52;95040.94;;;18.59;90.03
10978;BME280;5542;48.272;10.794;2023-07-24T05:18:19;95034.03;;;18.58;90.33
10978;BME280;5542;48.272;10.794;2023-07-24T05:20:46;95029.19;;;18.60;90.17
10978;BME280;5542;48.272;10.794;2023-07-24T05:23:14;95025.75;;;18.59;90.03
10978;BME280;5542;48.272;10.794;2023-07-24T05:25:41;95017.75;;;18.59;90.66
10978;BME280;5542;48.272;10.794;2023-07-24T05:28:09;95028.09;;;18.61;90.60
10978;BME280;5542;48.272;10.794;2023-07-24T05:30:36;95022.13;;;18.69;90.97
10978;BME280;5542;48.272;10.794;2023-07-24T05:33:02;95027.44;;;18.83;91.41
10978;BME280;5542;48.272;10.794;2023-07-24T05:35:29;95026.88;;;18.86;91.66
10978;BME280;5542;48.272;10.794;2023-07-24T05:37:56;95034.66;;;18.96;92.03
10978;BME280;5542;48.272;10.794;2023-07-24T05:40:22;95034.97;;;18.95;93.22
10978;BME280;5542;48.272;10.794;2023-07-24T05:42:49;95033.44;;;19.02;93.07
10978;BME280;5542;48.272;10.794;2023-07-24T05:45:17;95020.81;;;18.94;92.92
10978;BME280;5542;48.272;10.794;2023-07-24T05:47:44;95007.22;;;18.96;92.05
10978;BME280;5542;48.272;10.794;2023-07-24T05:50:10;95007.09;;;19.01;92.44
10978;BME280;5542;48.272;10.794;2023-07-24T05:52:38;94994.88;;;19.00;91.29
10978;BME280;5542;48.272;10.794;2023-07-24T05:55:06;95003.16;;;18.98;91.73
10978;BME280;5542;48.272;10.794;2023-07-24T05:57:32;94996.75;;;18.99;91.40
10978;BME280;5542;48.272;10.794;2023-07-24T05:59:59;94990.22;;;19.05;91.17
10978;BME280;5542;48.272;10.794;2023-07-24T06:02:27;94993.88;;;19.09;90.95
10978;BME280;5542;48.272;10.794;2023-07-24T06:04:53;94998.97;;;19.19;90.71
10978;BME280;5542;48.272;10.794;2023-07-24T06:07:20;94999.47;;;19.22;91.40
10978;BME280;5542;48.272;10.794;2023-07-24T06:09:47;94994.22;;;19.30;92.19
10978;BME280;5542;48.272;10.794;2023-07-24T06:12:13;94995.13;;;19.48;91.50
10978;BME280;5542;48.272;10.794;2023-07-24T06:14:40;94995.22;;;19.57;91.83
10978;BME280;5542;48.272;10.794;2023-07-24T06:17:07;95006.53;;;19.76;92.21
10978;BME280;5542;48.272;10.794;2023-07-24T06:19:35;95009.16;;;19.99;89.10
10978;BME280;5542;48.272;10.794;2023-07-24T06:22:02;95000.03;;;19.91;89.21
10978;BME280;5542;48.272;10.794;2023-07-24T06:24:28;95004.78;;;20.03;89.29
10978;BME280;5542;48.272;10.794;2023-07-24T06:26:55;95018.81;;;20.08;87.69
10978;BME280;5542;48.272;10.794;2023-07-24T06:29:23;95026.50;;;20.10;87.60
10978;BME280;5542;48.272;10.794;2023-07-24T06:31:52;95101.06;;;20.06;85.80
10978;BME280;5542;48.272;10.794;2023-07-24T06:34:18;95132.91;;;20.03;85.71
10978;BME280;5542;48.272;10.794;2023-07-24T06:36:46;95173.47;;;19.91;84.02
10978;BME280;5542;48.272;10.794;2023-07-24T06:39:13;95226.84;;;19.91;82.30
10978;BME280;5542;48.272;10.794;2023-07-24T06:41:40;95228.16;;;19.80;81.22
10978;BME280;5542;48.272;10.794;2023-07-24T06:44:06;95222.53;;;19.67;82.10
10978;BME280;5542;48.272;10.794;2023-07-24T06:46:33;95225.00;;;19.64;82.88
10978;BME280;5542;48.272;10.794;2023-07-24T06:48:59;95217.38;;;19.57;84.20
10978;BME280;5542;48.272;10.794;2023-07-24T06:51:26;95226.06;;;19.49;85.79
10978;BME280;5542;48.272;10.794;2023-07-24T06:53:54;95234.06;;;19.49;86.79
10978;BME280;5542;48.272;10.794;2023-07-24T06:56:20;95226.94;;;19.44;86.95
10978;BME280;5542;48.272;10.794;2023-07-24T06:58:47;95243.03;;;19.26;88.18
10978;BME280;5542;48.272;10.794;2023-07-24T07:01:14;95237.31;;;19.18;89.42
10978;BME280;5542;48.272;10.794;2023-07-24T07:03:40;95244.66;;;19.08;90.48
10978;BME280;5542;48.272;10.794;2023-07-24T07:06:07;95237.06;;;19.01;91.64
10978;BME280;5542;48.272;10.794;2023-07-24T07:08:35;95231.25;;;18.99;91.73
10978;BME280;5542;48.272;10.794;2023-07-24T07:11:03;95233.41;;;18.97;90.02
10978;BME280;5542;48.272;10.794;2023-07-24T07:13:29;95223.84;;;18.96;88.70
10978;BME280;5542;48.272;10.794;2023-07-24T07:15:56;95217.81;;;18.90;89.80
10978;BME280;5542;48.272;10.794;2023-07-24T07:18:23;95221.16;;;18.96;89.38
10978;BME280;5542;48.272;10.794;2023-07-24T07:20:51;95226.06;;;18.89;90.01
10978;BME280;5542;48.272;10.794;2023-07-24T07:23:18;95216.19;;;18.89;90.25
10978;BME280;5542;48.272;10.794;2023-07-24T07:25:45;95229.34;;;18.86;90.39
10978;BME280;5542;48.272;10.794;2023-07-24T07:28:13;95233.97;;;18.80;90.89
10978;BME280;5542;48.272;10.794;2023-07-24T07:30:40;95239.66;;;18.74;90.87
10978;BME280;5542;48.272;10.794;2023-07-24T07:33:06;95223.31;;;18.80;91.46
10978;BME280;5542;48.272;10.794;2023-07-24T07:35:33;95207.69;;;18.74;90.08
10978;BME280;5542;48.272;10.794;2023-07-24T07:38:00;95202.19;;;18.65;88.44
10978;BME280;5542;48.272;10.794;2023-07-24T07:40:27;95192.72;;;18.59;87.80
10978;BME280;5542;48.272;10.794;2023-07-24T07:42:54;95190.75;;;18.64;87.35
10978;BME280;5542;48.272;10.794;2023-07-24T07:45:23;95176.81;;;18.73;86.23
10978;BME280;5542;48.272;10.794;2023-07-24T07:47:50;95135.56;;;18.70;84.68
10978;BME280;5542;48.272;10.794;2023-07-24T07:50:18;95098.84;;;18.67;85.95
10978;BME280;5542;48.272;10.794;2023-07-24T07:52:45;95064.47;;;18.71;86.96
10978;BME280;5542;48.272;10.794;2023-07-24T07:55:11;95042.16;;;18.80;87.60
10978;BME280;5542;48.272;10.794;2023-07-24T07:57:39;95041.28;;;18.71;87.91
10978;BME280;5542;48.272;10.794;2023-07-24T08:00:06;95034.56;;;18.74;88.30
10978;BME280;5542;48.272;10.794;2023-07-24T08:02:34;95050.69;;;18.63;89.80
10978;BME280;5542;48.272;10.794;2023-07-24T08:05:05;95066.09;;;18.66;89.84
10978;BME280;5542;48.272;10.794;2023-07-24T08:07:32;95069.19;;;18.74;89.38
10978;BME280;5542;48.272;10.794;2023-07-24T08:09:59;95074.03;;;18.72;90.54
10978;BME280;5542;48.272;10.794;2023-07-24T08:12:25;95084.16;;;18.70;91.19
10978;BME280;5542;48.272;10.794;2023-07-24T08:14:52;95085.25;;;18.68;92.13
10978;BME280;5542;48.272;10.794;2023-07-24T08:17:19;95076.75;;;18.66;93.65
10978;BME280;5542;48.272;10.794;2023-07-24T08:19:47;95050.53;;;18.74;93.92
10978;BME280;5542;48.272;10.794;2023-07-24T08:22:13;95041.06;;;18.81;94.14
10978;BME280;5542;48.272;10.794;2023-07-24T08:24:40;95045.78;;;18.98;93.81
10978;BME280;5542;48.272;10.794;2023-07-24T08:27:07;95025.97;;;19.04;92.76
10978;BME280;5542;48.272;10.794;2023-07-24T08:29:33;95019.78;;;19.17;93.58
10978;BME280;5542;48.272;10.794;2023-07-24T08:32:01;95013.84;;;19.34;91.75
10978;BME280;5542;48.272;10.794;2023-07-24T08:34:27;95011.22;;;19.57;91.72
10978;BME280;5542;48.272;10.794;2023-07-24T08:36:56;95010.09;;;19.72;90.22
10978;BME280;5542;48.272;10.794;2023-07-24T08:39:22;95026.22;;;19.89;89.90
10978;BME280;5542;48.272;10.794;2023-07-24T08:41:49;95032.31;;;20.12;88.34
10978;BME280;5542;48.272;10.794;2023-07-24T08:44:16;95047.81;;;20.24;88.04
10978;BME280;5542;48.272;10.794;2023-07-24T08:46:43;95042.88;;;20.17;88.15
10978;BME280;5542;48.272;10.794;2023-07-24T08:49:11;95052.09;;;20.11;88.00
10978;BME280;5542;48.272;10.794;2023-07-24T08:51:39;95064.66;;;20.10;88.84
10978;BME280;5542;48.272;10.794;2023-07-24T08:54:08;95065.22;;;20.21;85.84
10978;BME280;5542;48.272;10.794;2023-07-24T08:56:36;95068.13;;;20.33;87.08
10978;BME280;5542;48.272;10.794;2023-07-24T08:59:03;95063.56;;;20.34;87.13
10978;BME280;5542;48.272;10.794;2023-07-24T09:01:30;95055.69;;;20.60;89.42
10978;BME280;5542;48.272;10.794;2023-07-24T09:03:57;95047.16;;;20.80;87.79
10978;BME280;5542;48.272;10.794;2023-07-24T09:06:23;95033.97;;;20.92;86.35
10978;BME280;5542;48.272;10.794;2023-07-24T09:08:53;95050.16;;;20.87;85.50
10978;BME280;5542;48.272;10.794;2023-07-24T09:11:21;95050.53;;;21.03;82.83
10978;BME280;5542;48.272;10.794;2023-07-24T09:13:48;95045.66;;;21.05;83.35
10978;BME280;5542;48.272;10.794;2023-07-24T09:16:22;95038.31;;;21.28;78.96
10978;BME280;5542;48.272;10.794;2023-07-24T09:18:49;95044.13;;;21.30;81.00
10978;BME280;5542;48.272;10.794;2023-07-24T09:21:27;95039.41;;;21.27;79.17
10978;BME280;5542;48.272;10.794;2023-07-24T09:23:54;95049.03;;;21.45;76.69
10978;BME280;5542;48.272;10.794;2023-07-24T09:26:22;95049.38;;;21.53;77.69
10978;BME280;5542;48.272;10.794;2023-07-24T09:28:52;95049.69;;;21.77;78.77
10978;BME280;5542;48.272;10.794;2023-07-24T09:31:19;95035.66;;;22.06;76.29
10978;BME280;5542;48.272;10.794;2023-07-24T09:33:45;95031.88;;;22.07;72.61
10978;BME280;5542;48.272;10.794;2023-07-24T09:36:12;95036.00;;;22.13;73.40
10978;BME280;5542;48.272;10.794;2023-07-24T09:38:40;95032.03;;;22.11;74.40
10978;BME280;5542;48.272;10.794;2023-07-24T09:41:07;95040.22;;;22.32;72.20
10978;BME280;5542;48.272;10.794;2023-07-24T09:43:35;95029.47;;;22.40;75.15
10978;BME280;5542;48.272;10.794;2023-07-24T09:46:04;95027.25;;;22.51;72.08
10978;BME280;5542;48.272;10.794;2023-07-24T09:48:31;95026.13;;;22.52;70.38
10978;BME280;5542;48.272;10.794;2023-07-24T09:50:59;95031.09;;;22.71;70.51
10978;BME280;5542;48.272;10.794;2023-07-24T09:53:31;95027.94;;;22.69;72.57
10978;BME280;5542;48.272;10.794;2023-07-24T09:55:59;95021.56;;;22.82;71.35
10978;BME280;5542;48.272;10.794;2023-07-24T09:58:28;95013.16;;;22.63;71.78
10978;BME280;5542;48.272;10.794;2023-07-24T10:00:57;95023.28;;;22.57;71.67
10978;BME280;5542;48.272;10.794;2023-07-24T10:03:25;95040.31;;;22.53;72.98
10978;BME280;5542;48.272;10.794;2023-07-24T10:05:52;95056.84;;;22.55;70.51
10978;BME280;5542;48.272;10.794;2023-07-24T10:08:20;95058.13;;;22.40;70.48
10978;BME280;5542;48.272;10.794;2023-07-24T10:10:47;95045.44;;;22.19;71.94
10978;BME280;5542;48.272;10.794;2023-07-24T10:13:16;95011.13;;;22.13;73.57
10978;BME280;5542;48.272;10.794;2023-07-24T10:15:44;95001.50;;;22.12;73.11
10978;BME280;5542;48.272;10.794;2023-07-24T10:18:15;94984.34;;;22.13;73.20
10978;BME280;5542;48.272;10.794;2023-07-24T10:20:42;94987.09;;;22.34;73.60
10978;BME280;5542;48.272;10.794;2023-07-24T10:23:10;95003.72;;;22.57;71.83
10978;BME280;5542;48.272;10.794;2023-07-24T10:25:39;95010.44;;;22.71;72.23
10978;BME280;5542;48.272;10.794;2023-07-24T10:28:07;95016.56;;;22.81;71.27
10978;BME280;5542;48.272;10.794;2023-07-24T10:30:37;95007.00;;;23.00;70.78
10978;BME280;5542;48.272;10.794;2023-07-24T10:33:08;95001.03;;;23.24;71.68
10978;BME280;5542;48.272;10.794;2023-07-24T10:35:41;95000.06;;;23.50;65.84
10978;BME280;5542;48.272;10.794;2023-07-24T10:38:08;94993.00;;;23.66;66.82
10978;BME280;5542;48.272;10.794;2023-07-24T10:40:35;94989.19;;;23.88;66.38
10978;BME280;5542;48.272;10.794;2023-07-24T10:43:05;94991.03;;;24.21;63.45
10978;BME280;5542;48.272;10.794;2023-07-24T10:45:40;94981.94;;;24.59;62.43
10978;BME280;5542;48.272;10.794;2023-07-24T10:48:07;94974.22;;;24.82;63.27
10978;BME280;5542;48.272;10.794;2023-07-24T10:50:37;94969.88;;;25.14;60.38
10978;BME280;5542;48.272;10.794;2023-07-24T10:53:05;94961.53;;;25.31;57.10
10978;BME280;5542;48.272;10.794;2023-07-24T10:55:32;94953.78;;;25.42;57.46
10978;BME280;5542;48.272;10.794;2023-07-24T10:57:59;94959.88;;;25.26;58.89
10978;BME280;5542;48.272;10.794;2023-07-24T11:00:25;94958.44;;;25.17;59.95
10978;BME280;5542;48.272;10.794;2023-07-24T11:02:53;94960.28;;;25.41;56.96
10978;BME280;5542;48.272;10.794;2023-07-24T11:05:20;94959.03;;;25.50;56.34
10978;BME280;5542;48.272;10.794;2023-07-24T11:07:46;94958.59;;;25.36;57.70
10978;BME280;5542;48.272;10.794;2023-07-24T11:10:18;94953.88;;;25.45;57.99
10978;BME280;5542;48.272;10.794;2023-07-24T11:12:45;94939.16;;;25.55;59.60
10978;BME280;5542;48.272;10.794;2023-07-24T11:15:13;94936.91;;;25.85;54.88
10978;BME280;5542;48.272;10.794;2023-07-24T11:17:41;94940.03;;;25.87;55.00
10978;BME280;5542;48.272;10.794;2023-07-24T11:20:10;94930.91;;;25.92;58.18
10978;BME280;5542;48.272;10.794;2023-07-24T11:22:38;94919.66;;;26.02;57.43
10978;BME280;5542;48.272;10.794;2023-07-24T11:25:06;94913.81;;;26.00;55.57
10978;BME280;5542;48.272;10.794;2023-07-24T11:27:38;94929.19;;;25.84;56.30
10978;BME280;5542;48.272;10.794;2023-07-24T11:30:05;94946.13;;;25.84;58.48
10978;BME280;5542;48.272;10.794;2023-07-24T11:32:33;94935.81;;;26.02;57.50
10978;BME280;5542;48.272;10.794;2023-07-24T11:35:00;94930.66;;;25.97;55.65
10978;BME280;5542;48.272;10.794;2023-07-24T11:37:28;94953.28;;;25.92;57.44
10978;BME280;5542;48.272;10.794;2023-07-24T11:39:56;95011.44;;;25.81;57.95
10978;BME280;5542;48.272;10.794;2023-07-24T11:42:25;95064.63;;;25.84;57.11
10978;BME280;5542;48.272;10.794;2023-07-24T11:44:53;95109.06;;;25.66;57.78
10978;BME280;5542;48.272;10.794;2023-07-24T11:47:20;95124.91;;;25.43;57.98
10978;BME280;5542;48.272;10.794;2023-07-24T11:49:56;95144.09;;;25.17;64.41
10978;BME280;5542;48.272;10.794;2023-07-24T11:52:23;95166.06;;;24.86;65.44
10978;BME280;5542;48.272;10.794;2023-07-24T11:54:55;95169.56;;;24.53;68.06
10978;BME280;5542;48.272;10.794;2023-07-24T11:57:23;95150.28;;;24.30;69.47
10978;BME280;5542;48.272;10.794;2023-07-24T11:59:49;95153.19;;;24.04;69.43
10978;BME280;5542;48.272;10.794;2023-07-24T12:02:18;95173.97;;;23.65;71.67
10978;BME280;5542;48.272;10.794;2023-07-24T12:04:45;95174.25;;;23.34;72.82
10978;BME280;5542;48.272;10.794;2023-07-24T12:07:11;95172.88;;;23.19;72.94
10978;BME280;5542;48.272;10.794;2023-07-24T12:09:38;95148.97;;;22.97;73.37
10978;BME280;5542;48.272;10.794;2023-07-24T12:12:05;95125.19;;;22.78;74.57
10978;BME280;5542;48.272;10.794;2023-07-24T12:14:32;95117.66;;;22.63;75.85
10978;BME280;5542;48.272;10.794;2023-07-24T12:17:01;95111.53;;;22.54;76.99
10978;BME280;5542;48.272;10.794;2023-07-24T12:19:29;95122.63;;;22.17;77.92
10978;BME280;5542;48.272;10.794;2023-07-24T12:21:56;95124.66;;;22.20;78.42
10978;BME280;5542;48.272;10.794;2023-07-24T12:24:22;95151.16;;;22.13;78.60
10978;BME280;5542;48.272;10.794;2023-07-24T12:26:49;95160.88;;;22.01;79.44
10978;BME280;5542;48.272;10.794;2023-07-24T12:29:16;95173.16;;;21.84;80.04
10978;BME280;5542;48.272;10.794;2023-07-24T12:31:42;95149.34;;;21.65;80.61
10978;BME280;5542;48.272;10.794;2023-07-24T12:34:09;95139.09;;;21.67;80.62
10978;BME280;5542;48.272;10.794;2023-07-24T12:36:37;95136.56;;;21.54;81.81
10978;BME280;5542;48.272;10.794;2023-07-24T12:39:03;95127.44;;;21.55;79.62
10978;BME280;5542;48.272;10.794;2023-07-24T12:41:30;95112.63;;;21.48;78.62
10978;BME280;5542;48.272;10.794;2023-07-24T12:43:56;95075.81;;;21.37;79.45
10978;BME280;5542;48.272;10.794;2023-07-24T12:46:23;95060.84;;;21.36;79.86
10978;BME280;5542;48.272;10.794;2023-07-24T12:48:50;95051.19;;;21.26;79.54
10978;BME280;5542;48.272;10.794;2023-07-24T12:51:16;95041.44;;;21.21;80.37
10978;BME280;5542;48.272;10.794;2023-07-24T12:53:44;95020.88;;;21.31;80.26
10978;BME280;5542;48.272;10.794;2023-07-24T12:56:11;95012.22;;;21.34;80.31
10978;BME280;5542;48.272;10.794;2023-07-24T12:58:37;95005.00;;;21.34;81.02
10978;BME280;5542;48.272;10.794;2023-07-24T13:01:04;94990.34;;;21.49;82.23